Home > Products > Valid Products > MTR

000
SAUS44 KEWX 300353
MTRATT
METAR KATT 300351Z AUTO VRB04KT 10SM CLR 26/22 A2993 RMK AO2 SLP121
T02610217





000
SAUS44 KEWX 300253
MTRATT
METAR KATT 300251Z AUTO 05003KT 10SM CLR 26/22 A2992 RMK AO2 SLP117
T02560222 53018





000
SAUS44 KEWX 300153
MTRATT
METAR KATT 300151Z AUTO 00000KT 10SM CLR 26/22 A2989 RMK AO2 PRESRR
SLP109 T02560217





000
SAUS44 KEWX 300052
MTRATT
METAR KATT 300051Z AUTO 15003KT 10SM CLR 26/22 A2984 RMK AO2 SLP093
T02560222





000
SAUS44 KEWX 292352
MTRATT
METAR KATT 292351Z AUTO 13005KT 10SM FEW023 SCT049 26/23 A2986 RMK
AO2 RAB23E50 TSE03B06B10E25 SLP099 P0007 60007 T02560228 10356 20256
53010





000
SAUS44 KEWX 292332
MTRATT
SPECI KATT 292330Z AUTO 14008KT 2 1/2SM +RA OVC047 26/23 A2988 RMK
AO2 RAB23 TSE03B06B10E25 P0002 T02610228





000
SAUS44 KEWX 292252
MTRATT
METAR KATT 292251Z AUTO 13009G20KT 110V170 10SM TS BKN050 30/21
A2986 RMK AO2 TSB34 PRESRR SLP099 T03000211





000
SAUS44 KEWX 292241
MTRATT
SPECI KATT 292240Z AUTO 13011G17KT 10SM TS SCT050 32/21 A2985 RMK
AO2 TSB34 PRESRR T03170211





000
SAUS44 KEWX 292152
MTRATT
METAR KATT 292151Z AUTO 10008KT 10SM CLR 35/19 A2982 RMK AO2 SLP081
T03500194





000
SAUS44 KEWX 292052
MTRATT
METAR KATT 292051Z AUTO 12008KT 10SM CLR 34/21 A2983 RMK AO2 SLP085
T03440206 56025





000
SAUS44 KEWX 291952
MTRATT
METAR KATT 291951Z AUTO VRB03KT 10SM CLR 35/20 A2984 RMK AO2 SLP090
T03500200





000
SAUS44 KEWX 291852
MTRATT
METAR KATT 291851Z AUTO VRB03KT 10SM SCT041 34/21 A2987 RMK AO2
SLP100 T03390211





000
SAUS44 KEWX 291753
MTRATT
METAR KATT 291751Z AUTO VRB03KT 10SM SCT028 BKN035 BKN047 31/23
A2990 RMK AO2 SLP112 T03110228 10322 20256 58003





000
SAUS44 KEWX 291742
MTRATT
SPECI KATT 291741Z AUTO 00000KT 10SM BKN030 BKN041 BKN049 31/23
A2991 RMK AO2 T03110228





000
SAUS44 KEWX 291733
MTRATT
SPECI KATT 291732Z AUTO 00000KT 10SM BKN028 BKN034 OVC044 30/23
A2991 RMK AO2 T03000233





000
SAUS44 KEWX 291652
MTRATT
METAR KATT 291651Z AUTO VRB04KT 10SM SCT027 32/23 A2991 RMK AO2
SLP114 T03170228





000
SAUS44 KEWX 291649
MTRATT
SPECI KATT 291648Z AUTO VRB03KT 10SM SCT025 31/23 A2992 RMK AO2





000
SAUS44 KEWX 291614
MTRATT
SPECI KATT 291613Z AUTO VRB04KT 10SM SCT020 BKN025 29/23 A2992 RMK
AO2 T02940233





000
SAUS44 KEWX 291605
MTRATT
SPECI KATT 291604Z AUTO 16003KT 10SM SCT017 29/23 A2992 RMK AO2
T02940233





000
SAUS44 KEWX 291552
MTRATT
METAR KATT 291551Z AUTO 12005KT 10SM BKN017 29/23 A2991 RMK AO2
SLP115 T02890233





000
SAUS44 KEWX 291500
MTRATT
SPECI KATT 291459Z AUTO VRB05KT 10SM SCT015 29/23 A2992 RMK AO2
T02890228





000
SAUS44 KEWX 291452
MTRATT
METAR KATT 291451Z AUTO VRB04KT 10SM BKN013 BKN048 28/23 A2992 RMK
AO2 SLP116 T02830233 50001





000
SAUS44 KEWX 291427
MTRATT
SPECI KATT 291426Z AUTO 00000KT 10SM BKN014 BKN021 OVC060 26/24
A2992 RMK AO2 T02610239





000
SAUS44 KEWX 291353
MTRATT
METAR KATT 291351Z AUTO 01005KT 10SM OVC015 27/23 A2993 RMK AO2
SLP120 T02720233





000
SAUS44 KEWX 291252
MTRATT
METAR KATT 291251Z AUTO VRB03KT 10SM BKN010 OVC017 26/23 A2993 RMK
AO2 SLP123 T02560233





000
SAUS44 KEWX 291152
MTRATT
METAR KATT 291151Z AUTO 10003KT 10SM OVC009 26/23 A2992 RMK AO2
SLP116 T02560233 10267 20250 53003





000
SAUS44 KEWX 291142
MTRATT
SPECI KATT 291140Z AUTO 00000KT 10SM OVC008 25/23 A2991 RMK AO2
T02500233





000
SAUS44 KEWX 291124
MTRATT
SPECI KATT 291123Z AUTO 00000KT 10SM BKN010 25/23 A2991 RMK AO2
T02500228





000
SAUS44 KEWX 291100
MTRATT
SPECI KATT 291059Z AUTO 10004KT 10SM SCT012 25/23 A2990 RMK AO2
T02500228





000
SAUS44 KEWX 291052
MTRATT
METAR KATT 291051Z AUTO VRB04KT 10SM SCT012 BKN018 25/23 A2990 RMK
AO2 SLP109 T02500228





000
SAUS44 KEWX 290952
MTRATT
METAR KATT 290951Z AUTO 00000KT 10SM BKN012 OVC095 26/23 A2991 RMK
AO2 SLP114 T02560228





000
SAUS44 KEWX 290853
MTRATT
METAR KATT 290851Z AUTO 00000KT 10SM BKN011 26/23 A2991 RMK AO2
SLP111 T02560228 56003





000
SAUS44 KEWX 290752
MTRATT
METAR KATT 290751Z AUTO 14006KT 10SM OVC013 26/23 A2991 RMK AO2
SLP111 T02560228





000
SAUS44 KEWX 290728
MTRATT
SPECI KATT 290727Z AUTO VRB06KT 10SM BKN013 26/22 A2991 RMK AO2
T02560222





000
SAUS44 KEWX 290652
MTRATT
METAR KATT 290651Z AUTO 14007KT 10SM CLR 26/22 A2990 RMK AO2 SLP110
T02560222





000
SAUS44 KEWX 290553
MTRATT
METAR KATT 290551Z AUTO 15005KT 10SM CLR 27/22 A2991 RMK AO2 SLP113
T02670222 10317 20267 403720244 50005





000
SAUS44 KEWX 290453
MTRATT
METAR KATT 290451Z AUTO 16005KT 10SM CLR 27/22 A2992 RMK AO2 SLP115
T02720222





000
SAUS44 KEWX 290352
MTRATT
METAR KATT 290351Z AUTO 16006KT 10SM CLR 28/22 A2992 RMK AO2 SLP117
T02780217





000
SAUS44 KEWX 290252
MTRATT
METAR KATT 290251Z AUTO VRB04KT 10SM CLR 28/21 A2990 RMK AO2 SLP109
T02830211 53017





000
SAUS44 KEWX 290153
MTRATT
METAR KATT 290151Z AUTO 16007KT 100V180 10SM CLR 29/21 A2987 RMK AO2
SLP102 T02890206





000
SAUS44 KEWX 290052
MTRATT
METAR KATT 290051Z AUTO 15006G14KT 10SM CLR 30/22 A2985 RMK AO2
SLP095 T03000217





000
SAUS44 KEWX 282352
MTRATT
METAR KATT 282351Z AUTO 15011G16KT 10SM CLR 32/21 A2985 RMK AO2
SLP093 T03170206 10372 20317 58009





000
SAUS44 KEWX 282252
MTRATT
METAR KATT 282251Z AUTO 15007G18KT 110V190 10SM CLR 33/22 A2986 RMK
AO2 SLP096 T03330217





000
SAUS44 KEWX 282152
MTRATT
METAR KATT 282151Z AUTO 15011G16KT 120V190 10SM FEW070 34/21 A2986
RMK AO2 SLP096 T03390211





000
SAUS44 KEWX 282052
MTRATT
METAR KATT 282051Z AUTO 12009G22KT 10SM BKN055 BKN070 OVC090 34/22
A2988 RMK AO2 SLP101 T03390217 56019





000
SAUS44 KEWX 281952
MTRATT
METAR KATT 281951Z AUTO VRB03KT 10SM BKN060 BKN075 35/20 A2989 RMK
AO2 SLP104 T03500200





000
SAUS44 KEWX 281852
MTRATT
METAR KATT 281851Z AUTO VRB03KT 10SM CLR 36/20 A2990 RMK AO2 SLP109
T03560200





000
SAUS44 KEWX 281753
MTRATT
METAR KATT 281751Z AUTO 10SM FEW045 34/21 A2993 RMK AO2 SLP120
T03440206 10344 20244 58013





000
SAUS44 KEWX 281653
MTRATT
METAR KATT 281651Z AUTO 00000KT 10SM FEW034 31/22 A2996 RMK AO2
SLP131 T03110217





000
SAUS44 KEWX 281552
MTRATT
METAR KATT 281551Z AUTO 00000KT 10SM CLR 29/22 A2998 RMK AO2 SLP135
T02940222





000
SAUS44 KEWX 281516
MTRATT
SPECI KATT 281515Z AUTO 00000KT 10SM FEW021 SCT027 29/23 A2997 RMK
AO2 T02890228





000
SAUS44 KEWX 281500
MTRATT
SPECI KATT 281459Z AUTO VRB04KT 10SM BKN021 BKN027 29/23 A2997 RMK
AO2 T02890228





000
SAUS44 KEWX 281452
MTRATT
METAR KATT 281451Z AUTO VRB05KT 10SM SCT019 28/22 A2997 RMK AO2
SLP134 T02830222 50007





000
SAUS44 KEWX 281352
MTRATT
METAR KATT 281351Z AUTO VRB04KT 10SM SCT015 27/22 A2998 RMK AO2
SLP135 T02720222





000
SAUS44 KEWX 281252
MTRATT
METAR KATT 281251Z AUTO 00000KT 10SM CLR 26/22 A2997 RMK AO2 SLP132
T02560217





000
SAUS44 KEWX 281153
MTRATT
METAR KATT 281151Z AUTO 00000KT 10SM CLR 25/22 A2995 RMK AO2 SLP127
T02500217 10272 20244 56003





000
SAUS44 KEWX 281053
MTRATT
METAR KATT 281051Z AUTO 00000KT 10SM CLR 25/22 A2995 RMK AO2 SLP126
T02500217





000
SAUS44 KEWX 280952
MTRATT
METAR KATT 280951Z AUTO 00000KT 10SM CLR 25/21 A2995 RMK AO2 SLP126
T02500211





000
SAUS44 KEWX 280853
MTRATT
METAR KATT 280851Z AUTO 11003KT 10SM CLR 26/22 A2996 RMK AO2 SLP129
T02560217 58011





000
SAUS44 KEWX 280752
MTRATT
METAR KATT 280751Z AUTO 00000KT 10SM CLR 26/21 A2998 RMK AO2 SLP135
T02560211





000
SAUS44 KEWX 280652
MTRATT
METAR KATT 280651Z AUTO 16006KT 10SM CLR 27/21 A2999 RMK AO2 SLP139
T02670211





000
SAUS44 KEWX 280552
MTRATT
METAR KATT 280551Z AUTO VRB03KT 10SM CLR 27/21 A3000 RMK AO2 SLP142
T02720206 10339 20272 403670244 51009





000
SAUS44 KEWX 280452
MTRATT
METAR KATT 280451Z AUTO 14004KT 10SM CLR 28/20 A2999 RMK AO2 SLP138
T02830200





000
SAUS44 KEWX 280353
MTRATT
METAR KATT 280351Z AUTO 14005KT 10SM CLR 29/17 A2998 RMK AO2 SLP138
T02890172





000
SAUS44 KEWX 280252
MTRATT
METAR KATT 280251Z AUTO 00000KT 10SM CLR 30/13 A2997 RMK AO2 SLP133
T03000133 53013





000
SAUS44 KEWX 280152
MTRATT
METAR KATT 280151Z AUTO 10004KT 10SM CLR 32/13 A2995 RMK AO2 SLP128
T03170133





000
SAUS44 KEWX 280053
MTRATT
METAR KATT 280051Z AUTO VRB03KT 10SM CLR 33/13 A2994 RMK AO2 SLP123
T03280133





000
SAUS44 KEWX 272352
MTRATT
METAR KATT 272351Z AUTO VRB05KT 10SM CLR 34/14 A2993 RMK AO2 SLP119
T03440139 10367 20317 56012





000
SAUS44 KEWX 272252
MTRATT
METAR KATT 272251Z AUTO VRB04KT 10SM FEW080 36/15 A2993 RMK AO2
SLP120 T03560150





000
SAUS44 KEWX 272152
MTRATT
METAR KATT 272151Z AUTO 06005KT 10SM FEW075 36/16 A2995 RMK AO2
SLP124 T03610156





000
SAUS44 KEWX 272052
MTRATT
METAR KATT 272051Z AUTO 02007KT 350V060 10SM SCT070 36/17 A2996 RMK
AO2 SLP130 T03610167 57024





000
SAUS44 KEWX 271952
MTRATT
METAR KATT 271951Z AUTO 09008KT 060V120 10SM CLR 35/17 A2999 RMK AO2
SLP138 T03500167





000
SAUS44 KEWX 271852
MTRATT
METAR KATT 271851Z AUTO VRB06KT 10SM FEW065 35/18 A3001 RMK AO2
SLP147 T03500178





000
SAUS44 KEWX 271753
MTRATT
METAR KATT 271751Z AUTO 09007KT 070V130 10SM BKN050 BKN060 BKN080
32/19 A3004 RMK AO2 SLP156 T03170194 10339 20244 58005





000
SAUS44 KEWX 271652
MTRATT
METAR KATT 271651Z AUTO 09006KT 10SM SCT042 BKN050 BKN060 32/21
A3005 RMK AO2 SLP160 T03220206





000
SAUS44 KEWX 271552
MTRATT
METAR KATT 271551Z AUTO VRB06KT 10SM FEW029 SCT055 31/22 A3006 RMK
AO2 SLP163 T03060217





000
SAUS44 KEWX 271525
MTRATT
SPECI KATT 271524Z AUTO VRB03KT 10SM SCT027 BKN048 29/22 A3006 RMK
AO2 T02940222





000
SAUS44 KEWX 271507
MTRATT
SPECI KATT 271506Z AUTO VRB03KT 10SM BKN027 OVC036 29/22 A3005 RMK
AO2 T02890222





000
SAUS44 KEWX 271452
MTRATT
METAR KATT 271451Z AUTO 00000KT 10SM SCT027 BKN036 29/22 A3005 RMK
AO2 SLP161 T02890222 51013





000
SAUS44 KEWX 271352
MTRATT
METAR KATT 271351Z AUTO 32003KT 10SM CLR 28/22 A3004 RMK AO2 SLP157
T02780222





000
SAUS44 KEWX 271252
MTRATT
METAR KATT 271251Z AUTO 00000KT 10SM CLR 25/22 A3003 RMK AO2 SLP154
T02500222





000
SAUS44 KEWX 271153
MTRATT
METAR KATT 271151Z AUTO 00000KT 10SM CLR 24/22 A3001 RMK AO2 SLP149
T02440222 10278 20244 53002





000
SAUS44 KEWX 271052
MTRATT
METAR KATT 271051Z AUTO 00000KT 10SM CLR 25/22 A3000 RMK AO2 SLP145
T02500222





000
SAUS44 KEWX 270952
MTRATT
METAR KATT 270951Z AUTO 00000KT 10SM CLR 26/22 A3000 RMK AO2 SLP144
T02560222





000
SAUS44 KEWX 270952
MTRATT
METAR KATT 270951Z AUTO 00000KT 10SM CLR 26/22 A3000 RMK AO2 SLP144
T02560222





000
SAUS44 KEWX 270852
MTRATT
METAR KATT 270851Z AUTO 00000KT 10SM CLR 26/22 A3001 RMK AO2 SLP145
T02610222 56007





000
SAUS44 KEWX 270752
MTRATT
METAR KATT 270751Z AUTO 00000KT 10SM CLR 27/22 A3001 RMK AO2 SLP145
T02670222





000
SAUS44 KEWX 270652
MTRATT
METAR KATT 270651Z AUTO 17003KT 10SM CLR 27/22 A3002 RMK AO2 SLP149
T02720222





000
SAUS44 KEWX 270552
MTRATT
METAR KATT 270551Z AUTO 16006KT 10SM CLR 28/22 A3003 RMK AO2 SLP151
T02780222 10328 20278 403830250 51017





000
SAUS44 KEWX 270452
MTRATT
METAR KATT 270451Z AUTO 14004KT 10SM BKN060 29/21 A3001 RMK AO2
SLP146 T02890206





    US Dept of Commerce
    National Oceanic and Atmospheric Administration
    National Weather Service
    1325 East West Highway
    Silver Spring, MD 20910
    Page Author: NWS Internet Services Team
Disclaimer
Information Quality
Credits
Glossary
Privacy Policy
Freedom of Information Act (FOIA)
About Us
Career Opportunities